KPGA/PGA METAR and TAF weather

Enter ICAO airport designator
Station Type Date Time Source
KPGA METAR 2019/02/16 06:53 UTC NOAA

KPGA 160653Z AUTO 24013G21KT 10SM CLR 08/M06 A2978 RMK AO2 SLP065 T00781056 401060028 TSNO


Station Type Date Time Source
KPGA Decoded METAR 2019/02/16 06:53 UTC NOAA

PAGE MUNICIPAL AIRPORT, AZ, United States (KPGA) 36-56N 111-27W 1307M
Feb 16, 2019 - 01:53 AM EST / 2019.02.16 0653 UTC
Wind: from the WSW (240 degrees) at 15 MPH (13 KT) gusting to 24 MPH (21 KT):0
Visibility: 10 mile(s):0
Sky conditions: clear
Temperature: 46.0 F (7.8 C)
Dew Point: 21.9 F (-5.6 C)
Relative Humidity: 38%
Pressure (altimeter): 29.78 in. Hg (1008 hPa)
ob: KPGA 160653Z AUTO 24013G21KT 10SM CLR 08/M06 A2978 RMK AO2 SLP065 T00781056 401060028 TSNO
cycle: 7

Station Type Date Time Source
KPGA TAF 2019/02/16 07:58 UTC NOAA

TAF
AMD KPGA 160658Z 1607/1706 23010G20KT P6SM FEW040 SCT250
FM160900 25015KT P6SM VCSH SCT040 BKN060
TEMPO 1610/1614 4SM -SHRA BR BKN035
FM161600 31008KT P6SM BKN040
FM161800 27008KT P6SM SCT040


Example: see airport list